createdAt,value
2019-02-19T00:00:17.947Z,57.88
2019-02-19T00:00:49.148Z,59.50
2019-02-19T00:01:20.361Z,58.78
2019-02-19T00:01:51.577Z,66.72
2019-02-19T00:02:22.771Z,60.75
2019-02-19T00:02:53.976Z,60.90
2019-02-19T00:03:25.212Z,60.95
2019-02-19T00:03:56.483Z,61.42
2019-02-19T00:04:27.725Z,58.90
2019-02-19T00:04:58.934Z,63.55
2019-02-19T00:05:30.146Z,61.30
2019-02-19T00:06:01.359Z,62.03
2019-02-19T00:06:32.570Z,64.87
2019-02-19T00:07:03.780Z,64.25
2019-02-19T00:07:35.032Z,62.83
2019-02-19T00:08:06.265Z,62.65
2019-02-19T00:08:37.550Z,62.83
2019-02-19T00:09:09.154Z,60.60
2019-02-19T00:09:40.376Z,60.23
2019-02-19T00:10:11.606Z,62.62
2019-02-19T00:10:42.842Z,60.83
2019-02-19T00:11:14.091Z,60.95
2019-02-19T00:11:45.340Z,59.83
2019-02-19T00:12:16.550Z,60.70
2019-02-19T00:12:47.766Z,63.98
2019-02-19T00:13:18.973Z,59.95
2019-02-19T00:13:50.194Z,63.73
2019-02-19T00:14:21.424Z,63.78
2019-02-19T00:14:52.636Z,59.45
2019-02-19T00:15:23.842Z,62.85
2019-02-19T00:15:55.060Z,69.75
2019-02-19T00:16:26.343Z,66.67
2019-02-19T00:16:57.553Z,63.85
2019-02-19T00:17:28.768Z,55.75
2019-02-19T00:17:59.975Z,55.20
2019-02-19T00:18:31.183Z,58.38
2019-02-19T00:19:02.383Z,57.95
2019-02-19T00:19:33.654Z,60.20
2019-02-19T00:20:04.858Z,61.95
2019-02-19T00:20:36.060Z,55.10
2019-02-19T00:21:07.260Z,62.15
2019-02-19T00:21:38.509Z,52.83
2019-02-19T00:22:09.707Z,55.83
2019-02-19T00:22:40.917Z,60.17
2019-02-19T00:23:12.131Z,54.88
2019-02-19T00:23:43.363Z,59.25
2019-02-19T00:24:14.626Z,54.85
2019-02-19T00:24:45.891Z,55.08
2019-02-19T00:25:17.093Z,55.85
2019-02-19T00:25:48.312Z,57.27
2019-02-19T00:26:19.523Z,57.10
2019-02-19T00:26:50.746Z,56.13
2019-02-19T00:27:21.956Z,53.58
2019-02-19T00:27:53.159Z,54.23
2019-02-19T00:28:24.382Z,55.67
2019-02-19T00:28:55.582Z,56.05
2019-02-19T00:29:26.798Z,56.15
2019-02-19T00:29:58.064Z,52.33
2019-02-19T00:30:29.304Z,52.20
2019-02-19T00:31:00.520Z,53.92
2019-02-19T00:31:31.727Z,52.38
2019-02-19T00:32:02.948Z,53.55
2019-02-19T00:32:34.152Z,55.12
2019-02-19T00:33:05.359Z,54.30
2019-02-19T00:33:36.594Z,53.95
2019-02-19T00:34:07.824Z,49.00
2019-02-19T00:34:39.041Z,52.95
2019-02-19T00:35:10.307Z,52.50
2019-02-19T00:35:41.538Z,52.05
2019-02-19T00:36:12.749Z,51.77
2019-02-19T00:36:43.956Z,50.48
2019-02-19T00:37:15.184Z,50.25
2019-02-19T00:37:46.438Z,50.23
2019-02-19T00:38:17.681Z,51.88
2019-02-19T00:38:48.930Z,49.25
2019-02-19T00:39:20.176Z,51.60
2019-02-19T00:39:51.377Z,53.08
2019-02-19T00:40:22.587Z,49.35
2019-02-19T00:40:53.790Z,47.08
2019-02-19T00:41:26.012Z,52.73
2019-02-19T00:41:57.222Z,44.08
2019-02-19T00:42:28.432Z,46.98
2019-02-19T00:42:59.682Z,50.28
2019-02-19T00:43:30.883Z,48.05
2019-02-19T00:44:02.078Z,50.28
2019-02-19T00:44:33.284Z,45.83
2019-02-19T00:45:04.500Z,47.15
2019-02-19T00:45:35.719Z,46.85
2019-02-19T00:46:06.915Z,44.15
2019-02-19T00:46:38.139Z,50.35
2019-02-19T00:47:09.347Z,47.65
2019-02-19T00:47:40.564Z,42.70
2019-02-19T00:48:11.784Z,47.78
2019-02-19T00:48:43.019Z,42.95
2019-02-19T00:49:14.269Z,43.42
2019-02-19T00:49:45.484Z,44.03
2019-02-19T00:50:16.729Z,37.33
2019-02-19T00:50:47.953Z,41.92
2019-02-19T00:51:19.210Z,38.65
2019-02-19T00:51:50.432Z,40.88
2019-02-19T00:52:21.666Z,41.70
2019-02-19T00:52:52.907Z,42.17
2019-02-19T00:53:24.106Z,47.43
2019-02-19T00:53:58.173Z,44.53
2019-02-19T00:54:29.428Z,43.58
2019-02-19T00:55:00.723Z,41.13
2019-02-19T00:55:33.893Z,38.50
2019-02-19T00:56:09.897Z,41.08
2019-02-19T00:56:41.091Z,39.98
2019-02-19T00:57:12.352Z,38.58
2019-02-19T00:57:43.604Z,35.25
2019-02-19T00:58:14.818Z,39.75
2019-02-19T00:58:46.415Z,45.78
2019-02-19T00:59:17.621Z,42.33
2019-02-19T00:59:48.889Z,45.35
2019-02-19T01:00:21.295Z,42.60
2019-02-19T01:00:54.338Z,43.73
2019-02-19T01:01:25.567Z,41.40
2019-02-19T01:01:56.781Z,40.95
2019-02-19T01:02:29.861Z,39.38
2019-02-19T01:03:02.378Z,36.25
2019-02-19T01:03:33.597Z,41.48
2019-02-19T01:04:04.801Z,41.08
2019-02-19T01:04:36.051Z,35.73
2019-02-19T01:05:07.256Z,38.58
2019-02-19T01:05:38.511Z,42.83
2019-02-19T01:06:09.727Z,38.30
2019-02-19T01:06:42.875Z,42.55
2019-02-19T01:07:14.624Z,37.13
2019-02-19T01:07:45.830Z,34.13
2019-02-19T01:08:17.048Z,37.85
2019-02-19T01:08:48.257Z,38.17
2019-02-19T01:09:19.517Z,36.03
2019-02-19T01:09:53.967Z,43.92
2019-02-19T01:10:27.932Z,37.55
2019-02-19T01:11:00.385Z,36.60
2019-02-19T01:11:31.592Z,36.95
2019-02-19T01:12:02.795Z,34.65
2019-02-19T01:12:34.052Z,38.90
2019-02-19T01:13:05.300Z,37.23
2019-02-19T01:13:36.517Z,38.28
2019-02-19T01:14:08.850Z,35.60
2019-02-19T01:14:40.049Z,38.28
2019-02-19T01:15:11.320Z,37.78
2019-02-19T01:15:42.833Z,38.78
2019-02-19T01:16:14.047Z,32.85
2019-02-19T01:16:47.984Z,38.63
2019-02-19T01:17:20.364Z,39.40
2019-02-19T01:17:56.323Z,37.17
2019-02-19T01:18:27.521Z,37.98
2019-02-19T01:19:01.851Z,38.70
2019-02-19T01:19:41.863Z,39.42
2019-02-19T01:20:13.130Z,39.08
2019-02-19T01:20:44.339Z,41.73
2019-02-19T01:21:18.222Z,37.98
2019-02-19T01:21:49.522Z,39.98
2019-02-19T01:22:20.788Z,39.35
2019-02-19T01:22:52.023Z,41.53
2019-02-19T01:23:23.224Z,38.42
2019-02-19T01:23:54.433Z,39.03
2019-02-19T01:24:25.668Z,38.23
2019-02-19T01:24:56.950Z,38.90
2019-02-19T01:25:28.177Z,42.93
2019-02-19T01:25:59.444Z,39.60
2019-02-19T01:26:30.704Z,37.93
2019-02-19T01:27:01.904Z,41.25
2019-02-19T01:27:33.099Z,38.75
2019-02-19T01:28:04.323Z,37.30
2019-02-19T01:28:35.531Z,40.35
2019-02-19T01:29:06.733Z,39.13
2019-02-19T01:29:37.965Z,39.70
2019-02-19T01:30:09.165Z,39.40
2019-02-19T01:30:40.403Z,37.50
2019-02-19T01:31:11.594Z,39.55
2019-02-19T01:31:42.860Z,38.60
2019-02-19T01:32:14.082Z,35.65
2019-02-19T01:32:45.296Z,34.80
2019-02-19T01:33:16.507Z,40.20
2019-02-19T01:33:47.717Z,37.58
2019-02-19T01:34:18.925Z,35.68
2019-02-19T01:34:50.138Z,38.38
2019-02-19T01:35:21.361Z,38.65
2019-02-19T01:35:52.561Z,34.67
2019-02-19T01:36:23.775Z,36.95
2019-02-19T01:36:55.025Z,36.40
2019-02-19T01:37:26.245Z,39.05
2019-02-19T01:37:57.458Z,40.35
2019-02-19T01:38:28.709Z,40.30
2019-02-19T01:39:00.102Z,34.75
2019-02-19T01:39:31.310Z,39.42
2019-02-19T01:40:02.523Z,40.73
2019-02-19T01:40:33.761Z,38.63
2019-02-19T01:41:04.985Z,38.78
2019-02-19T01:41:36.195Z,36.90
2019-02-19T01:42:07.414Z,34.53
2019-02-19T01:42:38.636Z,37.83
2019-02-19T01:43:09.881Z,37.42
2019-02-19T01:43:41.093Z,39.35
2019-02-19T01:44:12.295Z,38.40
2019-02-19T01:44:43.503Z,42.43
2019-02-19T01:45:14.738Z,41.00
2019-02-19T01:45:45.979Z,36.88
2019-02-19T01:46:17.188Z,37.95
2019-02-19T01:46:48.403Z,38.48
2019-02-19T01:47:19.618Z,36.88
2019-02-19T01:47:50.839Z,35.95
2019-02-19T01:48:22.099Z,38.73
2019-02-19T01:48:53.328Z,41.53
2019-02-19T01:49:24.539Z,36.65
2019-02-19T01:49:55.776Z,40.48
2019-02-19T01:50:26.999Z,38.58
2019-02-19T01:50:58.311Z,37.58
2019-02-19T01:51:29.515Z,40.40
2019-02-19T01:52:00.719Z,36.20
2019-02-19T01:52:31.947Z,35.52
2019-02-19T01:53:03.174Z,39.70
2019-02-19T01:53:34.378Z,38.10
2019-02-19T01:54:05.607Z,37.98
2019-02-19T01:54:36.833Z,38.17
2019-02-19T01:55:08.056Z,37.93
2019-02-19T01:55:39.254Z,38.85
2019-02-19T01:56:10.505Z,40.00
2019-02-19T01:56:41.721Z,41.90
2019-02-19T01:57:12.919Z,35.38
2019-02-19T01:57:44.163Z,38.75
2019-02-19T01:58:15.392Z,37.55
2019-02-19T01:58:46.600Z,39.92
2019-02-19T01:59:17.812Z,36.55
2019-02-19T01:59:49.022Z,40.60
2019-02-19T02:00:20.266Z,37.40
2019-02-19T02:00:51.478Z,39.05
2019-02-19T02:01:22.699Z,38.65
2019-02-19T02:01:53.923Z,40.63
2019-02-19T02:02:25.133Z,40.45
2019-02-19T02:02:56.335Z,40.10
2019-02-19T02:03:27.639Z,39.65
2019-02-19T02:03:58.845Z,37.40
2019-02-19T02:04:30.059Z,40.52
2019-02-19T02:05:01.306Z,37.58
2019-02-19T02:05:32.517Z,40.17
2019-02-19T02:06:03.784Z,38.70
2019-02-19T02:06:34.993Z,40.78
2019-02-19T02:07:06.224Z,38.83
2019-02-19T02:07:37.418Z,36.98
2019-02-19T02:08:08.640Z,39.23
2019-02-19T02:08:39.867Z,36.33
2019-02-19T02:09:11.080Z,38.65
2019-02-19T02:09:42.300Z,36.75
2019-02-19T02:10:13.595Z,35.48
2019-02-19T02:10:44.817Z,34.78
2019-02-19T02:11:16.105Z,34.08
2019-02-19T02:11:47.370Z,38.78
2019-02-19T02:12:18.579Z,36.00
2019-02-19T02:12:49.753Z,37.38
2019-02-19T02:13:20.987Z,39.23
2019-02-19T02:13:52.250Z,38.23
2019-02-19T02:14:23.448Z,35.85
2019-02-19T02:14:54.669Z,39.63
2019-02-19T02:15:25.876Z,36.73
2019-02-19T02:15:57.078Z,35.52
2019-02-19T02:16:28.294Z,37.55
2019-02-19T02:16:59.547Z,37.65
2019-02-19T02:17:30.754Z,38.95
2019-02-19T02:18:01.987Z,39.63
2019-02-19T02:18:33.182Z,40.98
2019-02-19T02:19:04.402Z,39.58
2019-02-19T02:19:35.635Z,41.80
2019-02-19T02:20:06.836Z,37.83
2019-02-19T02:20:38.042Z,39.45
2019-02-19T02:21:09.297Z,35.83
2019-02-19T02:21:40.540Z,40.90
2019-02-19T02:22:11.756Z,37.85
2019-02-19T02:22:42.954Z,36.53
2019-02-19T02:23:14.201Z,39.40
2019-02-19T02:23:45.410Z,36.20
2019-02-19T02:24:16.620Z,35.88
2019-02-19T02:24:47.824Z,37.70
2019-02-19T02:25:19.048Z,37.65
2019-02-19T02:25:50.261Z,39.10
2019-02-19T02:26:21.471Z,37.23
2019-02-19T02:26:52.722Z,32.70
2019-02-19T02:27:24.008Z,33.40
2019-02-19T02:27:55.290Z,36.75
2019-02-19T02:28:26.535Z,33.95
2019-02-19T02:28:57.744Z,39.48
2019-02-19T02:29:28.959Z,35.85
2019-02-19T02:30:00.346Z,35.20
2019-02-19T02:30:31.627Z,40.65
2019-02-19T02:31:02.831Z,33.75
2019-02-19T02:31:34.046Z,35.30
2019-02-19T02:32:05.256Z,33.20
2019-02-19T02:32:36.465Z,33.08
2019-02-19T02:33:07.684Z,33.78
2019-02-19T02:33:38.895Z,33.70
2019-02-19T02:34:10.104Z,35.00
2019-02-19T02:34:41.309Z,37.03
2019-02-19T02:35:12.559Z,36.08
2019-02-19T02:35:43.805Z,35.48
2019-02-19T02:36:15.014Z,35.25
2019-02-19T02:36:46.226Z,35.35
2019-02-19T02:37:17.427Z,35.43
2019-02-19T02:37:48.672Z,34.40
2019-02-19T02:38:19.884Z,37.63
2019-02-19T02:38:51.078Z,36.13
2019-02-19T02:39:22.300Z,35.08
2019-02-19T02:39:53.505Z,34.67
2019-02-19T02:40:24.705Z,33.75
2019-02-19T02:40:55.969Z,31.33
2019-02-19T02:41:27.174Z,34.43
2019-02-19T02:41:58.388Z,33.70
2019-02-19T02:42:29.597Z,31.00
2019-02-19T02:43:00.883Z,30.35
2019-02-19T02:43:32.062Z,35.65
2019-02-19T02:44:03.287Z,32.73
2019-02-19T02:44:34.494Z,31.37
2019-02-19T02:45:05.721Z,33.88
2019-02-19T02:45:36.927Z,31.12
2019-02-19T02:46:08.151Z,31.57
2019-02-19T02:46:39.340Z,34.45
2019-02-19T02:47:10.552Z,30.02
2019-02-19T02:47:41.763Z,33.33
2019-02-19T02:48:13.023Z,32.85
2019-02-19T02:48:44.234Z,32.73
2019-02-19T02:49:15.460Z,32.05
2019-02-19T02:49:46.676Z,32.00
2019-02-19T02:50:17.906Z,37.13
2019-02-19T02:50:49.108Z,31.60
2019-02-19T02:51:20.335Z,31.87
2019-02-19T02:51:51.585Z,37.85
2019-02-19T02:52:22.881Z,32.28
2019-02-19T02:52:54.111Z,33.33
2019-02-19T02:53:25.332Z,30.52
2019-02-19T02:53:56.535Z,33.60
2019-02-19T02:54:27.750Z,33.13
2019-02-19T02:54:58.968Z,35.43
2019-02-19T02:55:30.178Z,38.33
2019-02-19T02:56:01.403Z,34.25
2019-02-19T02:56:32.621Z,33.88
2019-02-19T02:57:03.887Z,32.03
2019-02-19T02:57:35.101Z,35.58
2019-02-19T02:58:06.341Z,34.90
2019-02-19T02:58:37.574Z,35.48
2019-02-19T02:59:08.803Z,35.85
2019-02-19T02:59:40.015Z,33.85
2019-02-19T03:00:11.239Z,30.88
2019-02-19T03:00:42.441Z,34.30
2019-02-19T03:01:13.710Z,33.55
2019-02-19T03:01:44.948Z,27.82
2019-02-19T03:02:16.162Z,30.32
2019-02-19T03:02:47.465Z,28.55
2019-02-19T03:03:19.631Z,29.27
2019-02-19T03:03:50.839Z,27.02
2019-02-19T03:04:22.121Z,27.95
2019-02-19T03:04:53.341Z,29.23
2019-02-19T03:05:25.374Z,28.23
2019-02-19T03:05:56.682Z,29.10
2019-02-19T03:06:27.886Z,28.62
2019-02-19T03:06:59.098Z,27.82
2019-02-19T03:07:30.295Z,30.88
2019-02-19T03:08:01.539Z,29.07
2019-02-19T03:08:32.753Z,29.25
2019-02-19T03:09:04.041Z,27.32
2019-02-19T03:09:35.250Z,28.90
2019-02-19T03:10:06.493Z,29.75
2019-02-19T03:10:37.780Z,29.23
2019-02-19T03:11:09.031Z,29.95
2019-02-19T03:11:40.295Z,29.10
2019-02-19T03:12:11.482Z,31.93
2019-02-19T03:12:45.408Z,29.72
2019-02-19T03:13:16.643Z,31.33
2019-02-19T03:13:47.846Z,29.27
2019-02-19T03:14:19.084Z,30.43
2019-02-19T03:14:50.298Z,31.30
2019-02-19T03:15:21.507Z,33.92
2019-02-19T03:16:01.899Z,28.60
2019-02-19T03:16:26.566Z,33.23
2019-02-19T03:16:57.773Z,29.52
2019-02-19T03:17:29.045Z,31.75
2019-02-19T03:18:00.225Z,30.12
2019-02-19T03:18:31.439Z,34.33
2019-02-19T03:19:02.695Z,29.72
2019-02-19T03:19:33.938Z,32.25
2019-02-19T03:20:05.148Z,31.07
2019-02-19T03:20:36.360Z,32.28
2019-02-19T03:21:07.574Z,34.27
2019-02-19T03:21:38.784Z,30.95
2019-02-19T03:22:09.991Z,31.65
2019-02-19T03:22:41.266Z,28.87
2019-02-19T03:23:12.493Z,28.47
2019-02-19T03:23:43.733Z,32.20
2019-02-19T03:24:14.967Z,28.47
2019-02-19T03:24:46.190Z,29.55
2019-02-19T03:25:17.426Z,28.87
2019-02-19T03:25:48.655Z,25.35
2019-02-19T03:26:19.843Z,32.05
2019-02-19T03:26:51.070Z,30.75
2019-02-19T03:27:22.300Z,29.27
2019-02-19T03:27:53.528Z,30.65
2019-02-19T03:28:24.767Z,31.10
2019-02-19T03:28:56.005Z,29.98
2019-02-19T03:29:27.266Z,31.23
2019-02-19T03:29:58.531Z,29.45
2019-02-19T03:30:29.756Z,32.85
2019-02-19T03:31:00.977Z,30.75
2019-02-19T03:31:32.198Z,31.40
2019-02-19T03:32:03.401Z,31.17
2019-02-19T03:32:34.666Z,30.60
2019-02-19T03:33:05.889Z,30.75
2019-02-19T03:33:37.164Z,27.50
2019-02-19T03:34:08.429Z,29.42
2019-02-19T03:34:39.665Z,30.17
2019-02-19T03:35:10.882Z,30.95
2019-02-19T03:35:42.086Z,30.60
2019-02-19T03:36:13.298Z,29.50
2019-02-19T03:36:44.542Z,31.68
2019-02-19T03:37:15.736Z,29.57
2019-02-19T03:37:46.982Z,30.80
2019-02-19T03:38:18.178Z,32.10
2019-02-19T03:38:49.462Z,33.50
2019-02-19T03:39:20.681Z,29.32
2019-02-19T03:39:51.949Z,31.90
2019-02-19T03:40:23.202Z,29.30
2019-02-19T03:40:54.498Z,27.95
2019-02-19T03:41:25.774Z,29.25
2019-02-19T03:41:57.014Z,36.10
2019-02-19T03:42:28.273Z,31.20
2019-02-19T03:42:59.521Z,32.35
2019-02-19T03:43:30.749Z,32.58
2019-02-19T03:44:01.999Z,30.80
2019-02-19T03:44:33.198Z,30.95
2019-02-19T03:45:04.418Z,29.07
2019-02-19T03:45:35.693Z,35.38
2019-02-19T03:46:12.205Z,30.82
2019-02-19T03:46:39.809Z,30.65
2019-02-19T03:47:11.021Z,34.03
2019-02-19T03:47:42.233Z,32.73
2019-02-19T03:48:13.449Z,31.25
2019-02-19T03:48:46.662Z,30.70
2019-02-19T03:49:17.898Z,33.23
2019-02-19T03:49:49.099Z,30.05
2019-02-19T03:50:20.370Z,31.68
2019-02-19T03:50:51.584Z,32.10
2019-02-19T03:51:22.822Z,31.73
2019-02-19T03:51:54.031Z,30.48
2019-02-19T03:52:25.282Z,30.88
2019-02-19T03:52:56.452Z,34.15
2019-02-19T03:53:27.668Z,37.33
2019-02-19T03:53:58.951Z,33.10
2019-02-19T03:54:30.160Z,31.87
2019-02-19T03:55:01.378Z,31.30
2019-02-19T03:55:32.588Z,31.45
2019-02-19T03:56:03.982Z,33.40
2019-02-19T03:56:35.181Z,31.37
2019-02-19T03:57:06.424Z,32.60
2019-02-19T03:57:37.610Z,36.23
2019-02-19T03:58:08.815Z,35.17
2019-02-19T03:58:40.041Z,33.65
2019-02-19T03:59:11.290Z,31.00
2019-02-19T03:59:42.488Z,33.80
2019-02-19T04:00:13.689Z,35.48
2019-02-19T04:00:44.910Z,32.50
2019-02-19T04:01:16.161Z,34.15
2019-02-19T04:01:47.767Z,34.20
2019-02-19T04:02:18.982Z,32.88
2019-02-19T04:02:50.195Z,35.95
2019-02-19T04:03:21.424Z,33.45
2019-02-19T04:03:52.634Z,35.68
2019-02-19T04:04:23.840Z,32.30
2019-02-19T04:04:55.050Z,33.92
2019-02-19T04:05:26.264Z,33.98
2019-02-19T04:05:57.474Z,33.90
2019-02-19T04:06:28.742Z,36.23
2019-02-19T04:06:59.951Z,39.15
2019-02-19T04:07:31.148Z,35.08
2019-02-19T04:08:02.449Z,36.63
2019-02-19T04:08:33.750Z,35.85
2019-02-19T04:09:04.977Z,33.53
2019-02-19T04:09:36.198Z,33.23
2019-02-19T04:10:07.425Z,34.92
2019-02-19T04:10:38.700Z,35.85
2019-02-19T04:11:09.919Z,37.58
2019-02-19T04:11:41.101Z,35.43
2019-02-19T04:12:12.338Z,35.20
2019-02-19T04:12:43.597Z,38.23
2019-02-19T04:13:14.814Z,37.48
2019-02-19T04:13:46.020Z,36.55
2019-02-19T04:14:17.220Z,40.15
2019-02-19T04:14:48.444Z,34.40
2019-02-19T04:15:19.650Z,38.00
2019-02-19T04:15:50.882Z,37.42
2019-02-19T04:16:22.088Z,39.85
2019-02-19T04:16:53.362Z,40.52
2019-02-19T04:17:24.565Z,38.28
2019-02-19T04:17:55.766Z,36.35
2019-02-19T04:18:26.964Z,40.50
2019-02-19T04:18:58.187Z,38.05
2019-02-19T04:19:29.400Z,37.48
2019-02-19T04:20:00.627Z,39.25
2019-02-19T04:20:31.821Z,42.88
2019-02-19T04:21:03.094Z,41.13
2019-02-19T04:21:34.331Z,40.40
2019-02-19T04:22:05.547Z,40.67
2019-02-19T04:22:36.750Z,37.25
2019-02-19T04:23:07.971Z,38.10
2019-02-19T04:23:39.195Z,39.38
2019-02-19T04:24:10.435Z,39.98
2019-02-19T04:24:41.631Z,38.70
2019-02-19T04:25:12.857Z,40.40
2019-02-19T04:25:44.094Z,39.58
2019-02-19T04:26:15.307Z,39.35
2019-02-19T04:26:46.516Z,40.85
2019-02-19T04:27:17.725Z,44.70
2019-02-19T04:27:48.944Z,39.90
2019-02-19T04:28:20.152Z,44.95
2019-02-19T04:28:51.371Z,44.65
2019-02-19T04:29:22.618Z,43.13
2019-02-19T04:29:53.836Z,42.98
2019-02-19T04:30:25.053Z,42.73
2019-02-19T04:30:56.263Z,41.77
2019-02-19T04:31:27.463Z,44.80
2019-02-19T04:31:58.679Z,44.95
2019-02-19T04:32:29.883Z,44.08
2019-02-19T04:33:01.091Z,44.33
2019-02-19T04:33:32.320Z,44.33
2019-02-19T04:34:03.531Z,45.52
2019-02-19T04:34:34.739Z,42.78
2019-02-19T04:35:05.954Z,43.80
2019-02-19T04:35:37.156Z,43.68
2019-02-19T04:36:08.380Z,44.58
2019-02-19T04:36:39.585Z,42.55
2019-02-19T04:37:10.784Z,40.58
2019-02-19T04:37:42.035Z,41.95
2019-02-19T04:38:13.246Z,40.33
2019-02-19T04:38:44.448Z,41.20
2019-02-19T04:39:15.700Z,39.38
2019-02-19T04:39:46.911Z,39.53
2019-02-19T04:40:18.121Z,41.33
2019-02-19T04:40:50.689Z,45.65
2019-02-19T04:41:21.908Z,43.17
2019-02-19T04:41:53.129Z,42.85
2019-02-19T04:42:24.348Z,42.00
2019-02-19T04:42:55.559Z,41.90
2019-02-19T04:43:26.774Z,42.03
2019-02-19T04:43:57.987Z,41.55
2019-02-19T04:44:29.222Z,38.90
2019-02-19T04:45:00.506Z,40.92
2019-02-19T04:45:31.715Z,41.25
2019-02-19T04:46:02.917Z,39.42
2019-02-19T04:46:34.121Z,38.20
2019-02-19T04:47:05.318Z,39.20
2019-02-19T04:47:36.527Z,44.45
2019-02-19T04:48:07.743Z,43.08
2019-02-19T04:48:38.944Z,38.33
2019-02-19T04:49:10.193Z,40.30
2019-02-19T04:49:41.416Z,39.10
2019-02-19T04:50:12.615Z,38.75
2019-02-19T04:50:43.833Z,36.45
2019-02-19T04:51:15.044Z,37.85
2019-02-19T04:51:46.267Z,32.53
2019-02-19T04:52:17.473Z,35.05
2019-02-19T04:52:48.717Z,38.10
2019-02-19T04:53:19.925Z,37.17
2019-02-19T04:53:51.149Z,36.88
2019-02-19T04:54:22.415Z,36.73
2019-02-19T04:54:53.636Z,38.05
2019-02-19T04:55:24.843Z,34.20
2019-02-19T04:55:56.065Z,36.73
2019-02-19T04:56:27.319Z,39.00
2019-02-19T04:56:58.506Z,38.58
2019-02-19T04:57:29.785Z,38.10
2019-02-19T04:58:00.986Z,37.03
2019-02-19T04:58:32.224Z,40.08
2019-02-19T04:59:03.456Z,39.63
2019-02-19T04:59:34.668Z,39.48
2019-02-19T05:00:05.894Z,44.18
2019-02-19T05:00:37.105Z,39.70
2019-02-19T05:01:08.302Z,44.15
2019-02-19T05:01:39.567Z,40.78
2019-02-19T05:02:10.792Z,38.20
2019-02-19T05:02:42.015Z,40.52
2019-02-19T05:03:13.214Z,41.20
2019-02-19T05:03:44.428Z,40.20
2019-02-19T05:04:15.648Z,40.38
2019-02-19T05:04:46.873Z,40.03
2019-02-19T05:05:18.084Z,41.00
2019-02-19T05:05:49.328Z,38.20
2019-02-19T05:06:20.550Z,37.10
2019-02-19T05:06:51.761Z,38.38
2019-02-19T05:07:22.977Z,39.65
2019-02-19T05:07:54.186Z,33.88
2019-02-19T05:08:25.397Z,35.00
2019-02-19T05:08:56.724Z,37.45
2019-02-19T05:09:27.924Z,37.25
2019-02-19T05:10:00.372Z,35.90
2019-02-19T05:10:31.637Z,35.78
2019-02-19T05:11:02.823Z,40.17
2019-02-19T05:11:34.032Z,37.25
2019-02-19T05:12:05.296Z,37.70
2019-02-19T05:12:36.520Z,34.50
2019-02-19T05:13:07.746Z,39.88
2019-02-19T05:13:38.962Z,35.38
2019-02-19T05:14:10.206Z,39.48
2019-02-19T05:14:41.425Z,39.20
2019-02-19T05:15:12.635Z,40.08
2019-02-19T05:15:43.840Z,34.75
2019-02-19T05:16:15.154Z,32.83
2019-02-19T05:16:46.363Z,37.60
2019-02-19T05:17:17.574Z,36.53
2019-02-19T05:17:48.807Z,36.53
2019-02-19T05:18:20.054Z,37.73
2019-02-19T05:18:51.351Z,36.28
2019-02-19T05:19:22.563Z,35.68
2019-02-19T05:19:53.788Z,33.35
2019-02-19T05:20:24.977Z,37.70
2019-02-19T05:20:56.185Z,36.42
2019-02-19T05:21:27.405Z,36.90
2019-02-19T05:21:58.627Z,33.90
2019-02-19T05:22:29.860Z,36.93
2019-02-19T05:23:01.115Z,33.70
2019-02-19T05:23:32.336Z,39.45
2019-02-19T05:24:03.541Z,38.63
2019-02-19T05:24:34.767Z,37.17
2019-02-19T05:25:06.031Z,41.25
2019-02-19T05:25:37.258Z,37.10
2019-02-19T05:26:08.473Z,36.10
2019-02-19T05:26:39.690Z,38.10
2019-02-19T05:27:10.956Z,38.25
2019-02-19T05:27:42.173Z,38.53
2019-02-19T05:28:13.377Z,38.88
2019-02-19T05:28:44.589Z,41.98
2019-02-19T05:29:15.801Z,37.15
2019-02-19T05:29:47.020Z,37.25
2019-02-19T05:30:18.233Z,37.65
2019-02-19T05:30:49.525Z,37.90
2019-02-19T05:31:20.742Z,35.70
2019-02-19T05:31:51.996Z,38.95
2019-02-19T05:32:23.201Z,38.35
2019-02-19T05:32:54.435Z,43.20
2019-02-19T05:33:25.646Z,36.60
2019-02-19T05:33:56.871Z,37.33
2019-02-19T05:34:28.078Z,37.08
2019-02-19T05:34:59.295Z,39.33
2019-02-19T05:35:30.548Z,36.90
2019-02-19T05:36:01.756Z,35.75
2019-02-19T05:36:32.974Z,38.15
2019-02-19T05:37:04.574Z,34.78
2019-02-19T05:37:35.888Z,37.65
2019-02-19T05:38:07.137Z,35.73
2019-02-19T05:38:38.361Z,36.60
2019-02-19T05:39:09.559Z,37.95
2019-02-19T05:39:40.774Z,37.53
2019-02-19T05:40:12.029Z,39.08
2019-02-19T05:40:43.208Z,40.23
2019-02-19T05:41:14.421Z,39.63
2019-02-19T05:41:45.624Z,37.53
2019-02-19T05:42:16.893Z,35.73
2019-02-19T05:42:48.184Z,36.15
2019-02-19T05:43:19.447Z,37.80
2019-02-19T05:43:50.686Z,38.25
2019-02-19T05:44:21.896Z,33.42
2019-02-19T05:44:53.122Z,34.83
2019-02-19T05:45:24.324Z,37.28
2019-02-19T05:45:55.542Z,37.28
2019-02-19T05:46:26.809Z,38.15
2019-02-19T05:46:58.022Z,38.30
2019-02-19T05:47:29.246Z,42.33
2019-02-19T05:48:00.461Z,40.60
2019-02-19T05:48:31.683Z,35.45
2019-02-19T05:49:02.906Z,39.38
2019-02-19T05:49:34.165Z,38.23
2019-02-19T05:50:05.374Z,42.27
2019-02-19T05:50:36.604Z,38.90
2019-02-19T05:51:07.833Z,43.20
2019-02-19T05:51:39.310Z,42.88
2019-02-19T05:52:10.510Z,39.58
2019-02-19T05:52:41.737Z,37.23
2019-02-19T05:53:12.970Z,35.30
2019-02-19T05:53:44.945Z,32.03
2019-02-19T05:54:16.313Z,32.28
2019-02-19T05:54:47.525Z,36.53
2019-02-19T05:55:18.765Z,35.20
2019-02-19T05:55:49.949Z,33.15
2019-02-19T05:56:21.165Z,30.90
2019-02-19T05:56:52.406Z,30.82
2019-02-19T05:57:23.672Z,32.73
2019-02-19T05:57:54.873Z,31.55
2019-02-19T05:58:26.101Z,32.55
2019-02-19T05:58:57.326Z,31.37
2019-02-19T05:59:28.525Z,32.58
2019-02-19T05:59:59.773Z,31.97
2019-02-19T06:00:30.984Z,29.72
2019-02-19T06:01:02.186Z,35.45
2019-02-19T06:01:33.407Z,36.55
2019-02-19T06:02:04.623Z,30.55
2019-02-19T06:02:35.836Z,30.88
2019-02-19T06:03:07.064Z,34.23
2019-02-19T06:03:38.329Z,34.65
2019-02-19T06:04:09.523Z,32.65
2019-02-19T06:04:40.734Z,34.70
2019-02-19T06:05:11.956Z,35.48
2019-02-19T06:05:43.352Z,32.75
2019-02-19T06:06:14.604Z,31.50
2019-02-19T06:06:45.803Z,33.33
2019-02-19T06:07:17.022Z,31.55
2019-02-19T06:07:48.237Z,34.13
2019-02-19T06:08:19.469Z,32.05
2019-02-19T06:08:50.753Z,34.43
2019-02-19T06:09:21.966Z,32.13
2019-02-19T06:09:56.201Z,30.72
2019-02-19T06:10:27.439Z,33.18
2019-02-19T06:10:58.651Z,33.40
2019-02-19T06:11:30.882Z,30.55
2019-02-19T06:12:02.179Z,34.25
2019-02-19T06:12:33.384Z,34.27
2019-02-19T06:13:04.615Z,31.85
2019-02-19T06:13:35.846Z,35.78
2019-02-19T06:14:07.092Z,32.55
2019-02-19T06:14:38.317Z,32.90
2019-02-19T06:15:09.530Z,33.00
2019-02-19T06:15:40.756Z,29.48
2019-02-19T06:16:11.951Z,39.48
2019-02-19T06:16:43.154Z,31.62
2019-02-19T06:17:14.410Z,34.20
2019-02-19T06:17:45.619Z,34.33
2019-02-19T06:18:16.842Z,33.15
2019-02-19T06:18:48.073Z,32.08
2019-02-19T06:19:19.332Z,34.35
2019-02-19T06:19:50.601Z,30.65
2019-02-19T06:20:21.813Z,33.38
2019-02-19T06:20:53.030Z,33.05
2019-02-19T06:21:24.287Z,35.78
2019-02-19T06:21:55.500Z,33.88
2019-02-19T06:22:26.725Z,31.27
2019-02-19T06:22:57.984Z,35.83
2019-02-19T06:23:29.222Z,29.60
2019-02-19T06:24:00.473Z,32.03
2019-02-19T06:24:31.699Z,37.03
2019-02-19T06:25:02.925Z,31.48
2019-02-19T06:25:34.132Z,33.55
2019-02-19T06:26:05.330Z,32.20
2019-02-19T06:26:36.583Z,32.95
2019-02-19T06:27:07.795Z,34.10
2019-02-19T06:27:39.007Z,31.75
2019-02-19T06:28:10.236Z,32.83
2019-02-19T06:28:41.449Z,29.50
2019-02-19T06:29:12.685Z,34.63
2019-02-19T06:29:43.920Z,31.82
2019-02-19T06:30:15.123Z,33.58
2019-02-19T06:30:46.349Z,30.48
2019-02-19T06:31:17.621Z,29.63
2019-02-19T06:31:48.862Z,34.92
2019-02-19T06:32:20.146Z,27.90
2019-02-19T06:32:57.864Z,32.42
2019-02-19T06:33:29.129Z,27.58
2019-02-19T06:34:00.355Z,29.02
2019-02-19T06:34:31.582Z,33.13
2019-02-19T06:35:02.784Z,34.53
2019-02-19T06:35:34.042Z,29.52
2019-02-19T06:36:05.268Z,29.27
2019-02-19T06:36:36.441Z,29.82
2019-02-19T06:37:07.701Z,26.73
2019-02-19T06:37:39.095Z,28.07
2019-02-19T06:38:10.366Z,27.13
2019-02-19T06:38:41.592Z,28.90
2019-02-19T06:39:12.888Z,27.73
2019-02-19T06:39:44.136Z,29.80
2019-02-19T06:40:15.455Z,29.12
2019-02-19T06:40:46.730Z,30.85
2019-02-19T06:41:18.020Z,31.93
2019-02-19T06:41:49.297Z,33.75
2019-02-19T06:42:20.510Z,28.52
2019-02-19T06:42:51.784Z,31.90
2019-02-19T06:43:22.980Z,31.10